Details From EDHI - Hamburg Finkenwerder
To ETNL - Laage
Flight Number -
Tags generated
Created
Modified
Stats Distance 90 nm / 166 km
Max Altitude 9,500 ft / 2,896 m
Waypoints 3
Social Downloads 1
Likes 0
Share

Download

Looking for another format? Having issues loading an existing format? Contact us
Advertisement - Login to hide

Notes

Basic altitude profile: - Ascent Rate: 2500ft/min - Ascent Speed: 250kts - Cruise Altitude: 35000ft - Cruise Speed: 420kts - Descent Rate: 1500ft/min - Descent Speed: 250kts Options: - Use NATs: yes - Use PACOTS: yes - Use low airways: yes - Use high airways: yes

Route

EDHI RAMAR ETNL

ID Type Via Altitude (ft/m) Position (lat/lon) Dist (leg/tot) Name
O EDHI APT - 0 / 0 53.53591 / 9.83707 - / 0 nm Hamburg Finkenwerder
RAMAR FIX - 9,500 / 2,896 53.71083 / 10.93889 40 / 40 nm
O ETNL APT - 0 / 0 53.91808 / 12.27925 49 / 89 nm Laage

Altitude Profile

Advertisement - Login to hide

EDHI

Details ICAO EDHI (XFW)
Name Hamburg Finkenwerder
Region Germany - Civil
Timezone Europe/Berlin (UTC+1.0)
Stats Elevation 20 ft / 6 m (AMSL)
Location 53.533800° 9.832290°
Runways 1
Magnetic Variation 3.155° E

METAR

EDHI 021520Z 14004KT 110V170 8000 OVC023 03/01 Q1015

Decode

TAF

Not found

Departure Runways

ID Width Length Bearing (true/mag) Surface Threshold Overrun Markings Lighting
05 148 ft / 45 m 10,452 ft / 3,186 m 51.56° / 48.40° CONCRETE 2,018 ft / 615 m 0 ft / 0 m APP CENTERLINE EDGE THRESHOLD MALSF
23 148 ft / 45 m 10,452 ft / 3,186 m 231.59° / 228.43° CONCRETE 2,336 ft / 712 m 0 ft / 0 m APP CENTERLINE EDGE THRESHOLD MALSF

ETNL

Details ICAO ETNL (RLG)
Name Rostock-Laage
Region Germany - Military
Timezone Europe/Berlin (UTC+1.0)
Stats Elevation 141 ft / 43 m (AMSL)
Location 53.918100° 12.279300°
Runways 1
Magnetic Variation 3.935° E

METAR

ETNL 021520Z 14003KT 4200 BR BKN007 01/M00 Q1017 GRN GRN TEMPO YLO

Decode

TAF

Not found

Destination Runways

ID Width Length Bearing (true/mag) Surface Threshold Overrun Markings Lighting
09 148 ft / 45 m 8,243 ft / 2,513 m 97.70° / 93.77° ASPHALT 0 ft / 0 m 997 ft / 304 m PREC-APP EDGE THRESHOLD ALSF-I REIL-OMNI
27 148 ft / 45 m 8,243 ft / 2,513 m 277.73° / 273.80° ASPHALT 0 ft / 0 m 1,001 ft / 305 m PREC-APP EDGE THRESHOLD ALSF-I REIL-OMNI

Approach Navaids

Runway Type Ident Frequency Range Bearing (true/mag) Slope Elevation
09 LOC-ILS ILAE 108.55 MHz 18 nm / 33 km 97.72° / 93.78 ° - 141 ft / 43 m (AMSL)
09 GS ILAE 108.55 MHz 10 nm / 19 km 97.72° / 93.78 ° 3.01° 141 ft / 43 m (AMSL)
27 LOC-ILS ILAW 108.30 MHz 18 nm / 33 km 277.72° / 273.78 ° - 141 ft / 43 m (AMSL)
27 GS ILAW 108.30 MHz 10 nm / 19 km 277.72° / 273.78 ° 3.00° 141 ft / 43 m (AMSL)

Popular Alternatives